Taloyoak Airport
CYYH : now visible

Airfield :











YOU CAN JOIN US ON...

 
LOGIN :

Register | Disclaimer

   EN    FR    IT 

 









Legend :    VFR   Marginal VFR   IFR   Intensive IFR   Very Intensive IFR
Visi :
Ceiling :
>= 8 km
>= 3000ft
5 to 8 km
1000 to 3000 ft
1500m to 5 km
500 to 1000 ft
800 to 1500m
200 to 500 ft
< 800m
< 200 ft
Symbols :   Thunderstorms  Fog  Heavy snow  Heavy precipitations  Wind > 20 kt







- Airport Elevation : 92 ft
- IATA code : YYH


CYYH - Taloyoak

EXPIRED METARs :
  • 220000Z 34003KT 330V040 15SM OVC019 M01/M06 A2976 RMK SC8 /LAST STFD OBS/ NXT 221400Z/ SLP083
  • 212300Z 36004KT 330V060 15SM OVC019 M01/M05 A2978 RMK SC8 SLP088

TAF TAF CYYH
Valid from the 22 at 00:00 until the 22 at 12:00 UTC


212338Z 2200/2212 VRB03KT P6SM OVC015
TEMPO 2200/2212 BKN025 RMK NXT FCST BY 220600Z
No reported NOTAMs for that airfield.



MET'MAP, your aeronautical weather chart ! - Copyright ORBIFLY December 2007 - Disclaimer

ORBIFLY MET'MAP TEAM :

Programming & Development : Alexandra Zaïnal
Concept & Development : Baudouin d'Aumeries
Co-Development & Prog : Marc-Olivier Méhu
Technical & hardware support : Manuel Goepfert

Contact : metmap@orbifly.com




SOURCES & CREDITS :

   NOAA       Earth
Advisory